Time;durP1;ratioP1;P1;durP2;ratioP2;P2;SDS_P1;SDS_P2;PMS_P1;PMS_P2;Temp;Humidity;BMP_temperature;BMP_pressure;BME280_temperature;BME280_humidity;BME280_pressure;Samples;Min_cycle;Max_cycle;Signal;HPM_P1;HPM_P2
2023/03/13 04:00:18;;;;;;;10.75;5.00;;;9.80;99.90;;;;;;6245513;22;20349;-78
2023/03/13 04:02:46;;;;;;;10.18;5.95;;;9.90;99.90;;;;;;6277360;22;20392;-84
2023/03/13 04:05:12;;;;;;;12.50;6.15;;;9.90;99.90;;;;;;6251258;22;20012;-79
2023/03/13 04:07:38;;;;;;;13.02;6.35;;;9.90;99.90;;;;;;6250817;22;20015;-79
2023/03/13 04:10:04;;;;;;;8.85;5.18;;;10.00;99.90;;;;;;6251593;22;20011;-82
2023/03/13 04:12:32;;;;;;;10.95;6.40;;;10.00;99.90;;;;;;6250949;22;20504;-80
2023/03/13 04:14:57;;;;;;;15.63;7.72;;;10.10;99.90;;;;;;6251273;22;20047;-80
2023/03/13 04:17:23;;;;;;;10.07;6.07;;;10.10;99.90;;;;;;6252251;22;20333;-80
2023/03/13 04:19:49;;;;;;;14.55;6.05;;;10.10;99.90;;;;;;6251460;22;20012;-78
2023/03/13 04:22:14;;;;;;;18.13;8.88;;;10.20;99.90;;;;;;6278700;22;20012;-80
2023/03/13 04:24:40;;;;;;;18.83;9.10;;;10.20;99.90;;;;;;6225774;22;20012;-77
2023/03/13 04:27:05;;;;;;;18.10;9.13;;;10.20;99.90;;;;;;6250494;22;20433;-79
2023/03/13 04:29:34;;;;;;;17.95;8.95;;;10.30;99.90;;;;;;6226233;22;20016;-79
2023/03/13 04:32:00;;;;;;;17.23;8.50;;;10.30;99.90;;;;;;6250988;22;20012;-79
2023/03/13 04:34:26;;;;;;;27.20;11.40;;;10.40;99.90;;;;;;6225517;22;20008;-79
2023/03/13 04:36:52;;;;;;;18.83;10.73;;;10.40;99.90;;;;;;6226004;22;20014;-79
2023/03/13 04:39:17;;;;;;;21.75;10.30;;;10.40;99.90;;;;;;6277627;22;20110;-79
2023/03/13 04:41:43;;;;;;;27.17;10.95;;;10.50;99.90;;;;;;6250578;22;20008;-80
2023/03/13 04:44:09;;;;;;;23.55;9.90;;;10.50;99.90;;;;;;6250541;22;20058;-78
2023/03/13 04:46:35;;;;;;;15.68;8.27;;;10.60;99.90;;;;;;6250749;22;20015;-79
2023/03/13 04:49:01;;;;;;;12.82;7.10;;;10.60;99.90;;;;;;6225091;22;20452;-79
2023/03/13 04:51:26;;;;;;;14.60;6.93;;;10.70;99.90;;;;;;6250140;22;20038;-79
2023/03/13 04:53:52;;;;;;;21.88;10.00;;;10.80;99.90;;;;;;6225038;22;20054;-80
2023/03/13 04:56:26;;;;;;;21.13;11.10;;;10.80;99.90;;;;;;6250514;22;20007;-81
2023/03/13 04:58:51;;;;;;;18.20;7.65;;;10.90;99.90;;;;;;6250367;22;20038;-79
2023/03/13 05:01:17;;;;;;;19.55;9.75;;;10.90;99.90;;;;;;6250152;22;20441;-81
2023/03/13 05:03:43;;;;;;;21.65;7.95;;;10.90;99.90;;;;;;6250250;22;20165;-79
2023/03/13 05:06:09;;;;;;;12.15;4.97;;;11.00;99.90;;;;;;6250471;22;20345;-79
2023/03/13 05:08:37;;;;;;;16.65;7.38;;;11.00;99.90;;;;;;6250276;22;20015;-78
2023/03/13 05:11:03;;;;;;;14.48;8.77;;;11.10;99.90;;;;;;6250020;22;20471;-78
2023/03/13 05:13:29;;;;;;;17.27;8.50;;;11.10;99.90;;;;;;6250014;22;20019;-79
2023/03/13 05:15:55;;;;;;;14.57;8.38;;;11.10;99.90;;;;;;6250244;22;20437;-79
2023/03/13 05:18:20;;;;;;;14.70;6.78;;;11.20;99.90;;;;;;6250021;22;20329;-80
2023/03/13 05:20:46;;;;;;;7.68;4.20;;;11.20;99.90;;;;;;6250042;22;20378;-78
2023/03/13 05:23:12;;;;;;;13.02;7.50;;;11.20;99.90;;;;;;6250470;22;20015;-79
2023/03/13 05:25:37;;;;;;;12.45;6.05;;;11.30;99.90;;;;;;6250243;22;20095;-80
2023/03/13 05:28:03;;;;;;;13.43;6.10;;;11.20;99.90;;;;;;6250386;22;20019;-78
2023/03/13 05:30:29;;;;;;;13.70;6.68;;;11.30;99.90;;;;;;6250306;22;20028;-79
2023/03/13 05:33:05;;;;;;;15.30;6.22;;;11.30;99.90;;;;;;6250159;22;20059;-80
2023/03/13 05:35:30;;;;;;;12.00;5.25;;;11.30;99.90;;;;;;6249640;22;20027;-78
2023/03/13 05:37:56;;;;;;;10.20;5.30;;;11.30;99.90;;;;;;6276720;22;20011;-80
2023/03/13 05:40:21;;;;;;;13.43;6.25;;;11.30;99.90;;;;;;6277122;22;20011;-79
2023/03/13 05:42:47;;;;;;;9.82;5.63;;;11.30;99.90;;;;;;6225174;22;20016;-81
2023/03/13 05:45:13;;;;;;;10.82;5.63;;;11.30;99.90;;;;;;6249989;22;20193;-82
2023/03/13 05:47:39;;;;;;;10.45;5.78;;;11.30;99.90;;;;;;6250196;22;20061;-81
2023/03/13 05:50:05;;;;;;;12.82;6.00;;;11.30;99.90;;;;;;6249848;22;20016;-81
2023/03/13 05:52:33;;;;;;;11.77;5.40;;;11.30;99.90;;;;;;6249619;22;20328;-82
2023/03/13 05:54:58;;;;;;;13.55;5.80;;;11.30;99.90;;;;;;6250559;22;20012;-82
2023/03/13 05:57:25;;;;;;;15.68;6.40;;;11.40;99.90;;;;;;6250107;22;20011;-81
2023/03/13 05:59:50;;;;;;;13.93;6.72;;;11.40;99.90;;;;;;6276994;22;20103;-81
2023/03/13 06:02:16;;;;;;;11.30;6.13;;;11.40;99.90;;;;;;6249985;22;20015;-80
2023/03/13 06:04:42;;;;;;;9.25;4.28;;;11.50;99.90;;;;;;6252200;22;20067;-79
2023/03/13 06:07:08;;;;;;;13.30;6.97;;;11.50;99.90;;;;;;6250482;22;20364;-83
2023/03/13 06:09:34;;;;;;;13.15;5.10;;;11.50;99.90;;;;;;6251217;22;20068;-82
2023/03/13 06:11:59;;;;;;;13.55;5.10;;;11.50;99.90;;;;;;6250373;22;20023;-81
2023/03/13 06:14:25;;;;;;;12.02;5.68;;;11.50;99.90;;;;;;6224574;22;20054;-80
2023/03/13 06:16:53;;;;;;;11.90;5.95;;;11.50;99.90;;;;;;6249586;22;20054;-79
2023/03/13 06:19:21;;;;;;;12.95;5.97;;;11.50;99.90;;;;;;6249307;22;20012;-78
2023/03/13 06:21:47;;;;;;;16.77;5.95;;;11.50;99.90;;;;;;6250324;22;20015;-80
2023/03/13 06:24:12;;;;;;;11.15;5.30;;;11.50;99.90;;;;;;6277482;22;20113;-79
2023/03/13 06:26:38;;;;;;;14.40;4.32;;;11.50;99.90;;;;;;6276805;22;20086;-80
2023/03/13 06:29:04;;;;;;;14.98;5.50;;;11.40;99.90;;;;;;6277668;22;20090;-81
2023/03/13 06:31:29;;;;;;;17.17;4.97;;;11.50;99.90;;;;;;6249533;22;20016;-81
2023/03/13 06:33:55;;;;;;;14.63;5.22;;;11.50;99.90;;;;;;6250181;22;20011;-79
2023/03/13 06:36:22;;;;;;;15.35;6.57;;;11.50;99.90;;;;;;6249646;22;20012;-81
2023/03/13 06:38:48;;;;;;;17.67;5.13;;;11.50;99.90;;;;;;6277096;22;20105;-79
2023/03/13 06:41:14;;;;;;;13.18;5.13;;;11.60;99.90;;;;;;6276965;22;20007;-81
2023/03/13 06:43:40;;;;;;;11.27;3.55;;;11.70;99.90;;;;;;6250358;22;20452;-81
2023/03/13 06:46:07;;;;;;;17.55;5.35;;;11.70;99.90;;;;;;6250425;22;20008;-79
2023/03/13 06:48:33;;;;;;;11.88;4.15;;;11.70;99.90;;;;;;6277501;22;20033;-79
2023/03/13 06:50:59;;;;;;;12.70;4.47;;;11.80;99.90;;;;;;6277537;22;20011;-80
2023/03/13 06:53:25;;;;;;;9.90;4.50;;;11.70;99.90;;;;;;6277658;22;20142;-79
2023/03/13 06:55:51;;;;;;;11.55;3.67;;;11.80;99.90;;;;;;6249344;22;20016;-81
2023/03/13 06:58:17;;;;;;;12.65;4.38;;;11.80;99.90;;;;;;6276772;22;20011;-82
2023/03/13 07:00:43;;;;;;;13.35;4.72;;;11.80;99.90;;;;;;6248865;22;20087;-81
2023/03/13 07:03:10;;;;;;;14.00;4.72;;;11.70;99.90;;;;;;6224521;22;20039;-81
2023/03/13 07:05:36;;;;;;;14.43;4.97;;;11.70;99.90;;;;;;6250080;22;20333;-79
2023/03/13 07:08:02;;;;;;;14.38;4.13;;;11.70;99.90;;;;;;6277277;22;20299;-80
2023/03/13 07:10:30;;;;;;;16.92;5.25;;;11.70;99.90;;;;;;6276654;22;20012;-79
2023/03/13 07:12:56;;;;;;;9.80;3.80;;;11.70;99.90;;;;;;6250023;22;20431;-80
2023/03/13 07:15:23;;;;;;;11.43;3.38;;;11.80;99.90;;;;;;6277344;22;20016;-80
2023/03/13 07:17:49;;;;;;;15.20;5.00;;;11.80;99.90;;;;;;6249359;22;20061;-81
2023/03/13 07:20:14;;;;;;;17.10;4.40;;;11.90;99.90;;;;;;6223744;22;20433;-81
2023/03/13 07:22:41;;;;;;;10.93;4.43;;;11.90;99.90;;;;;;6194038;23;20020;-79
2023/03/13 07:25:08;;;;;;;9.38;2.55;;;11.90;99.90;;;;;;6219044;23;20012;-81
2023/03/13 07:27:34;;;;;;;13.52;4.80;;;11.90;99.90;;;;;;6245814;23;20034;-81
2023/03/13 07:30:13;;;;;;;17.30;4.93;;;11.90;99.90;;;;;;6218876;23;20087;-80
2023/03/13 07:32:38;;;;;;;12.77;4.47;;;11.90;99.90;;;;;;6245657;23;20047;-81
2023/03/13 07:35:04;;;;;;;8.15;3.53;;;11.80;99.90;;;;;;6218773;23;20008;-82
2023/03/13 07:37:30;;;;;;;8.63;3.28;;;11.80;99.90;;;;;;6245747;23;20095;-81
2023/03/13 07:39:55;;;;;;;15.32;4.47;;;11.80;99.90;;;;;;6218993;23;20040;-79
2023/03/13 07:42:21;;;;;;;10.98;4.03;;;11.70;99.90;;;;;;6218602;23;20333;-79
2023/03/13 07:44:47;;;;;;;12.73;4.13;;;11.60;99.90;;;;;;6220370;23;20012;-81
2023/03/13 07:47:12;;;;;;;8.60;3.30;;;11.50;99.90;;;;;;6218712;23;20012;-81
2023/03/13 07:49:41;;;;;;;18.77;5.13;;;11.60;99.90;;;;;;6219936;23;20070;-82
2023/03/13 07:52:07;;;;;;;8.80;3.33;;;11.60;99.90;;;;;;6246030;22;20008;-82
2023/03/13 07:54:33;;;;;;;5.22;2.83;;;11.60;99.90;;;;;;6245913;23;20008;-80
2023/03/13 07:57:00;;;;;;;11.30;3.35;;;11.60;99.90;;;;;;6219057;23;20012;-82
2023/03/13 07:59:26;;;;;;;8.52;3.35;;;11.70;99.90;;;;;;6246057;23;20047;-81
2023/03/13 08:01:52;;;;;;;8.57;3.30;;;11.70;99.90;;;;;;6246466;22;20012;-80
2023/03/13 08:04:18;;;;;;;5.35;2.30;;;11.60;99.90;;;;;;6247954;23;20012;-82
2023/03/13 08:06:44;;;;;;;5.32;1.83;;;11.60;99.90;;;;;;6221089;23;20023;-82
2023/03/13 08:09:09;;;;;;;5.15;2.85;;;11.70;99.90;;;;;;6220643;23;20016;-79
2023/03/13 08:11:39;;;;;;;3.90;1.95;;;11.70;99.90;;;;;;6220868;23;20012;-79
2023/03/13 08:14:05;;;;;;;8.32;2.75;;;11.70;99.90;;;;;;6247790;23;20020;-81
2023/03/13 08:16:33;;;;;;;6.45;2.78;;;11.70;99.90;;;;;;6248610;23;20274;-82
2023/03/13 08:18:59;;;;;;;6.22;2.28;;;11.80;99.90;;;;;;6247613;23;20012;-81
2023/03/13 08:21:27;;;;;;;10.25;2.80;;;11.90;99.90;;;;;;6247507;22;20038;-81
2023/03/13 08:23:55;;;;;;;10.15;2.38;;;12.00;99.90;;;;;;6220672;23;20089;-81
2023/03/13 08:26:23;;;;;;;5.28;1.85;;;12.00;99.90;;;;;;6248173;23;20107;-80
2023/03/13 08:28:52;;;;;;;5.93;1.60;;;12.00;99.90;;;;;;6195237;23;20051;-81
2023/03/13 08:31:27;;;;;;;8.48;2.28;;;12.10;99.90;;;;;;6220184;23;20016;-79
2023/03/13 08:33:52;;;;;;;7.47;1.83;;;12.10;99.90;;;;;;6247785;23;20341;-80
2023/03/13 08:36:23;;;;;;;7.88;1.65;;;12.20;99.90;;;;;;6220286;23;20047;-79
2023/03/13 08:38:49;;;;;;;6.60;1.83;;;12.10;99.90;;;;;;6220941;23;20020;-79
2023/03/13 08:41:21;;;;;;;8.20;2.10;;;12.20;99.90;;;;;;6247505;22;20039;-79
2023/03/13 08:43:47;;;;;;;8.18;1.70;;;12.20;99.90;;;;;;6220344;23;20019;-79
2023/03/13 08:46:14;;;;;;;7.97;1.88;;;12.10;99.90;;;;;;6220319;23;20016;-79
2023/03/13 08:48:40;;;;;;;8.13;2.67;;;12.20;99.90;;;;;;6247214;23;20023;-80
2023/03/13 08:51:12;;;;;;;7.88;1.70;;;12.20;99.90;;;;;;6219962;23;20433;-80
2023/03/13 08:53:39;;;;;;;4.80;1.73;;;12.30;99.90;;;;;;6247685;23;20012;-79
2023/03/13 08:56:08;;;;;;;5.43;1.95;;;12.40;99.90;;;;;;6220315;23;20035;-80
2023/03/13 08:58:34;;;;;;;7.45;2.38;;;12.40;99.90;;;;;;6247067;23;20385;-80
2023/03/13 09:01:11;;;;;;;9.65;2.47;;;12.40;99.90;;;;;;6220056;23;20012;-79
2023/03/13 09:03:37;;;;;;;8.30;2.55;;;12.40;99.90;;;;;;6220138;23;20374;-79
2023/03/13 09:06:04;;;;;;;7.65;2.17;;;12.40;99.90;;;;;;6220240;23;20018;-81
2023/03/13 09:08:31;;;;;;;9.48;2.72;;;12.50;99.90;;;;;;6195274;23;20023;-81
2023/03/13 09:10:58;;;;;;;8.27;2.63;;;12.40;99.90;;;;;;6220001;23;20022;-80
2023/03/13 09:13:25;;;;;;;6.05;2.08;;;12.40;99.90;;;;;;6219961;23;20023;-80
2023/03/13 09:15:58;;;;;;;7.88;3.33;;;12.40;99.90;;;;;;6220168;23;20016;-80
2023/03/13 09:18:25;;;;;;;7.10;2.70;;;12.30;99.90;;;;;;6219903;23;20055;-82
2023/03/13 09:20:51;;;;;;;8.65;2.50;;;12.30;99.90;;;;;;6219877;23;20039;-79
2023/03/13 09:23:18;;;;;;;14.73;3.03;;;12.20;99.90;;;;;;6219834;23;20019;-79
2023/03/13 09:25:43;;;;;;;5.90;2.67;;;12.20;99.90;;;;;;6219833;23;20016;-80
2023/03/13 09:28:09;;;;;;;5.75;2.50;;;12.20;99.90;;;;;;6220011;23;20127;-80
2023/03/13 09:30:35;;;;;;;8.70;2.90;;;12.30;99.90;;;;;;6247496;22;20062;-78
2023/03/13 09:33:01;;;;;;;6.38;2.40;;;12.40;99.90;;;;;;6219866;23;20012;-80
2023/03/13 09:35:27;;;;;;;7.53;2.15;;;12.50;99.90;;;;;;6220106;23;20043;-80
2023/03/13 09:37:52;;;;;;;10.65;2.60;;;12.60;99.90;;;;;;6247501;23;20008;-80
2023/03/13 09:40:21;;;;;;;8.68;2.25;;;12.80;99.90;;;;;;6248081;22;20008;-80
2023/03/13 09:42:49;;;;;;;5.95;1.90;;;12.90;99.90;;;;;;6194831;23;20012;-79
2023/03/13 09:45:37;;;;;;;6.47;2.03;;;13.10;99.90;;;;;;6246992;23;20079;-79
2023/03/13 09:48:28;;;;;;;10.32;2.00;;;13.30;99.90;;;;;;6219732;23;20011;-76
2023/03/13 09:51:19;;;;;;;13.25;2.30;;;13.50;99.90;;;;;;6220319;23;20023;-79
2023/03/13 09:53:54;;;;;;;8.27;2.20;;;13.60;99.90;;;;;;6247653;23;20345;-77
2023/03/13 09:56:23;;;;;;;7.35;2.03;;;13.70;99.90;;;;;;6222003;23;20016;-74
2023/03/13 09:58:54;;;;;;;8.88;1.70;;;13.80;99.90;;;;;;6234377;23;20020;-74
2023/03/13 10:01:28;;;;;;;13.85;2.53;;;14.00;99.90;;;;;;6230290;23;20058;-79
2023/03/13 10:03:57;;;;;;;10.70;2.33;;;14.00;99.90;;;;;;6248062;23;20023;-78
2023/03/13 10:06:26;;;;;;;15.75;2.40;;;14.00;99.90;;;;;;6248657;23;20062;-81
2023/03/13 10:08:52;;;;;;;9.63;2.13;;;14.00;99.90;;;;;;6221636;23;20011;-81
2023/03/13 10:11:43;;;;;;;12.95;2.30;;;13.90;99.90;;;;;;6248273;22;20416;-82
2023/03/13 10:14:29;;;;;;;12.18;2.20;;;13.80;99.90;;;;;;6207122;23;20103;-81
2023/03/13 10:17:06;;;;;;;10.10;2.88;;;13.80;99.90;;;;;;6220248;23;20043;-79
2023/03/13 10:19:38;;;;;;;11.68;2.70;;;13.80;99.90;;;;;;6195434;23;20012;-80
2023/03/13 10:22:13;;;;;;;17.55;2.58;;;13.80;99.90;;;;;;6247414;22;20023;-80
2023/03/13 10:24:48;;;;;;;13.07;2.63;;;13.80;99.90;;;;;;6219609;23;20114;-80
2023/03/13 10:27:15;;;;;;;6.55;1.63;;;13.70;99.90;;;;;;6219781;23;20019;-78
2023/03/13 10:29:40;;;;;;;14.35;2.53;;;13.80;99.90;;;;;;6220069;23;20438;-79
2023/03/13 10:32:09;;;;;;;12.18;2.30;;;13.80;99.90;;;;;;6219617;23;20016;-80
2023/03/13 10:34:51;;;;;;;12.80;2.22;;;13.90;99.90;;;;;;6219599;23;20023;-79
2023/03/13 10:37:42;;;;;;;12.40;2.55;;;14.00;99.90;;;;;;6219761;23;20047;-80
2023/03/13 10:40:21;;;;;;;10.48;2.33;;;14.10;99.90;;;;;;6232265;23;20023;-79
2023/03/13 10:42:49;;;;;;;14.52;2.05;;;14.20;99.90;;;;;;6219215;23;20016;-80
2023/03/13 10:45:21;;;;;;;19.40;2.70;;;14.30;99.90;;;;;;6246362;23;20057;-78
2023/03/13 10:47:54;;;;;;;14.13;2.90;;;14.40;99.90;;;;;;6219389;23;20012;-80
2023/03/13 10:50:23;;;;;;;13.85;2.80;;;14.40;99.90;;;;;;6219414;22;20012;-81
2023/03/13 10:52:50;;;;;;;16.08;2.50;;;14.60;99.90;;;;;;6194536;23;20446;-81
2023/03/13 10:55:21;;;;;;;13.63;3.42;;;14.70;99.90;;;;;;6219675;23;20051;-80
2023/03/13 10:58:04;;;;;;;11.40;2.75;;;15.00;99.90;;;;;;6246148;23;20076;-80
2023/03/13 11:00:37;;;;;;;12.80;2.25;;;15.20;99.90;;;;;;6219325;22;20012;-80
2023/03/13 11:03:18;;;;;;;10.10;2.58;;;15.20;99.90;;;;;;6219665;23;20015;-81
2023/03/13 11:06:02;;;;;;;7.03;1.70;;;15.10;99.90;;;;;;6219253;23;20023;-80
2023/03/13 11:08:35;;;;;;;9.98;1.70;;;14.90;99.90;;;;;;6246373;23;20075;-79
2023/03/13 11:11:02;;;;;;;11.43;2.03;;;14.90;99.90;;;;;;6218921;23;20087;-79
2023/03/13 11:13:42;;;;;;;9.90;1.70;;;14.80;99.90;;;;;;6220720;23;20020;-80
2023/03/13 11:16:20;;;;;;;7.63;1.83;;;14.80;99.90;;;;;;6218981;23;20023;-80
2023/03/13 11:19:04;;;;;;;5.57;1.50;;;14.80;99.90;;;;;;6218871;23;20024;-79
2023/03/13 11:22:19;;;;;;;10.32;2.00;;;14.80;99.90;;;;;;6219328;23;20012;-79
2023/03/13 11:24:45;;;;;;;9.93;2.20;;;14.70;99.90;;;;;;6124266;23;20014;-80
2023/03/13 11:27:23;;;;;;;8.90;1.92;;;14.70;99.90;;;;;;6221111;23;20091;-79
2023/03/13 11:30:06;;;;;;;7.35;2.13;;;14.70;99.90;;;;;;6220473;23;20046;-78
2023/03/13 11:32:41;;;;;;;7.20;1.50;;;15.00;99.90;;;;;;6220008;23;20020;-78
2023/03/13 11:35:30;;;;;;;;;;;15.20;99.90;;;;;;6220601;23;20396;-81
2023/03/13 11:37:57;;;;;;;5.80;1.75;;;15.40;99.90;;;;;;6205011;23;19973;-80
2023/03/13 11:40:36;;;;;;;5.85;1.20;;;15.60;99.90;;;;;;6221643;22;20438;-81
2023/03/13 11:43:17;;;;;;;2.38;0.90;;;15.80;99.90;;;;;;6221357;23;20476;-80
2023/03/13 11:46:37;;;;;;;14.07;1.60;;;15.90;99.90;;;;;;6248259;23;20012;-81
2023/03/13 11:49:35;;;;;;;6.80;1.40;;;15.70;99.90;;;;;;6102235;23;20129;-82
2023/03/13 11:52:12;;;;;;;6.13;1.80;;;15.80;99.90;;;;;;6196172;23;20043;-81
2023/03/13 11:54:53;;;;;;;10.45;2.40;;;15.70;99.90;;;;;;6220717;23;20342;-79
2023/03/13 11:57:38;;;;;;;8.38;1.80;;;15.60;99.90;;;;;;6220994;23;20016;-79
2023/03/13 12:00:12;;;;;;;11.38;2.65;;;15.60;99.90;;;;;;6221255;23;20130;-80
2023/03/13 12:03:21;;;;;;;9.73;2.03;;;15.60;99.90;;;;;;6220786;23;20062;-79
2023/03/13 12:05:59;;;;;;;14.10;2.70;;;15.60;99.90;;;;;;6220850;23;20058;-79
2023/03/13 12:08:34;;;;;;;11.35;2.63;;;15.70;99.90;;;;;;6248363;23;20058;-81
2023/03/13 12:11:12;;;;;;;10.07;1.75;;;15.60;99.90;;;;;;6247980;22;20107;-81
2023/03/13 12:13:41;;;;;;;15.35;2.25;;;15.50;99.90;;;;;;6248490;23;20083;-80
2023/03/13 12:16:22;;;;;;;12.77;2.33;;;15.50;99.90;;;;;;6221307;23;20012;-80
2023/03/13 12:18:49;;;;;;;7.50;2.42;;;15.60;99.90;;;;;;6221635;23;20012;-82
2023/03/13 12:21:37;;;;;;;13.13;2.15;;;15.90;99.90;;;;;;6220735;23;20012;-83
2023/03/13 12:24:25;;;;;;;17.00;2.72;;;16.00;99.90;;;;;;6221898;23;20318;-80
2023/03/13 12:27:14;;;;;;;16.75;3.50;;;16.00;99.90;;;;;;6221037;23;20012;-80
2023/03/13 12:30:13;;;;;;;12.85;2.42;;;15.80;99.90;;;;;;6247657;23;20087;-80
2023/03/13 12:32:44;;;;;;;12.55;2.15;;;15.50;99.90;;;;;;6220726;23;20446;-82
2023/03/13 12:35:19;;;;;;;8.80;2.17;;;15.30;99.90;;;;;;6221031;23;20016;-81
2023/03/13 12:37:52;;;;;;;10.83;3.20;;;15.20;99.90;;;;;;6220710;23;20016;-81
2023/03/13 12:40:33;;;;;;;9.45;2.15;;;15.20;99.90;;;;;;6248398;22;20390;-81
2023/03/13 12:43:20;;;;;;;12.95;3.15;;;15.20;99.90;;;;;;6221216;23;20016;-81
2023/03/13 12:45:53;;;;;;;13.70;2.38;;;15.30;99.90;;;;;;6221220;23;20012;-80
2023/03/13 12:48:43;;;;;;;15.60;2.03;;;15.40;99.90;;;;;;6247271;23;20016;-80
2023/03/13 12:51:41;;;;;;;20.02;3.15;;;15.50;99.90;;;;;;6220987;23;20024;-79
2023/03/13 12:54:33;;;;;;;14.43;3.35;;;15.40;99.90;;;;;;6220972;23;20020;-80
2023/03/13 12:57:13;;;;;;;17.63;3.75;;;15.50;99.90;;;;;;6247599;23;20060;-80
2023/03/13 12:59:42;;;;;;;17.33;3.50;;;15.70;99.90;;;;;;6220438;23;20012;-79
2023/03/13 13:02:29;;;;;;;19.85;3.92;;;15.80;99.90;;;;;;6220397;23;20030;-80
2023/03/13 13:04:58;;;;;;;15.48;2.55;;;15.40;99.90;;;;;;6247431;23;20008;-81
2023/03/13 13:07:33;;;;;;;13.10;3.28;;;15.50;99.90;;;;;;6221031;23;20051;-80
2023/03/13 13:10:01;;;;;;;18.00;3.40;;;15.80;99.90;;;;;;6248291;23;20008;-80
2023/03/13 13:12:27;;;;;;;11.77;3.13;;;15.80;99.90;;;;;;6220396;23;20016;-80
2023/03/13 13:14:57;;;;;;;19.60;3.20;;;15.60;99.90;;;;;;6221319;23;20026;-80
2023/03/13 13:17:44;;;;;;;21.08;3.60;;;15.40;99.90;;;;;;6247751;23;20016;-81
2023/03/13 13:20:29;;;;;;;17.45;3.30;;;15.20;99.90;;;;;;6220306;23;20445;-81
2023/03/13 13:22:56;;;;;;;17.17;2.85;;;15.20;99.90;;;;;;6247979;23;20057;-80
2023/03/13 13:25:32;;;;;;;14.38;2.75;;;15.10;99.90;;;;;;6220622;23;20123;-79
2023/03/13 13:28:34;;;;;;;20.13;3.30;;;15.10;99.90;;;;;;6220540;23;20036;-79
2023/03/13 13:31:00;;;;;;;14.60;2.72;;;15.40;99.90;;;;;;6183619;22;20008;-79
2023/03/13 13:33:29;;;;;;;20.90;4.63;;;15.50;99.90;;;;;;6220726;23;20349;-79
2023/03/13 13:36:20;;;;;;;26.73;6.53;;;15.50;99.90;;;;;;6247865;23;20016;-80
2023/03/13 13:38:49;;;;;;;21.35;4.25;;;15.40;99.90;;;;;;6220055;23;20016;-78
2023/03/13 13:41:14;;;;;;;16.95;3.70;;;15.60;99.90;;;;;;6195061;23;20402;-78
2023/03/13 13:43:44;;;;;;;20.20;3.55;;;15.60;99.90;;;;;;6246472;23;20035;-80
2023/03/13 13:46:28;;;;;;;24.23;3.78;;;15.60;99.90;;;;;;6247199;23;20012;-81
2023/03/13 13:49:06;;;;;;;24.65;3.42;;;15.60;99.90;;;;;;6247306;23;20012;-78
2023/03/13 13:51:36;;;;;;;20.27;3.33;;;15.70;99.90;;;;;;6247877;22;20067;-79
2023/03/13 13:54:29;;;;;;;18.27;3.70;;;15.60;99.90;;;;;;6247109;23;20039;-78
2023/03/13 13:56:58;;;;;;;21.65;3.90;;;15.60;99.90;;;;;;6247566;23;20012;-81
2023/03/13 13:59:29;;;;;;;15.25;2.75;;;15.60;99.90;;;;;;6219508;23;20023;-80
2023/03/13 14:02:07;;;;;;;17.70;3.50;;;15.50;99.90;;;;;;6219789;23;20022;-80
2023/03/13 14:04:53;;;;;;;15.32;3.38;;;15.50;99.90;;;;;;6247263;23;20082;-80
2023/03/13 14:07:23;;;;;;;;;;;15.50;99.90;;;;;;6204940;23;20012;-80
2023/03/13 14:09:58;;;;;;;15.68;3.08;;;15.40;99.90;;;;;;6247988;23;19911;-80
2023/03/13 14:12:35;;;;;;;17.10;2.50;;;15.40;99.90;;;;;;6220114;23;20016;-79
2023/03/13 14:15:18;;;;;;;15.98;3.05;;;15.40;99.90;;;;;;6219872;23;20381;-80
2023/03/13 14:17:54;;;;;;;19.38;4.10;;;15.30;99.90;;;;;;6194857;23;20020;-80
2023/03/13 14:20:27;;;;;;;16.23;3.50;;;15.50;99.90;;;;;;6247091;22;20066;-80
2023/03/13 14:22:55;;;;;;;15.35;3.40;;;15.20;99.90;;;;;;6220179;23;20497;-81
2023/03/13 14:25:23;;;;;;;19.45;3.83;;;15.10;99.90;;;;;;6220065;23;20012;-79
2023/03/13 14:27:50;;;;;;;18.67;3.30;;;15.20;99.90;;;;;;6219949;23;20365;-79
2023/03/13 14:30:18;;;;;;;21.25;3.38;;;15.20;99.90;;;;;;6220048;22;20032;-81
2023/03/13 14:32:44;;;;;;;13.68;2.83;;;15.20;99.90;;;;;;6247054;23;20050;-79
2023/03/13 14:35:18;;;;;;;19.80;3.40;;;15.20;99.90;;;;;;6247204;23;20015;-79
2023/03/13 14:37:47;;;;;;;21.35;3.92;;;15.30;99.90;;;;;;6194551;23;20016;-81
2023/03/13 14:40:20;;;;;;;17.88;3.22;;;15.40;99.90;;;;;;6246949;23;20333;-79
2023/03/13 14:42:49;;;;;;;18.50;3.80;;;15.40;99.90;;;;;;6219513;23;20038;-80
2023/03/13 14:45:23;;;;;;;14.95;2.85;;;15.40;99.90;;;;;;6246559;23;20079;-79
2023/03/13 14:47:52;;;;;;;18.13;3.78;;;15.30;99.90;;;;;;6219722;23;20335;-80
2023/03/13 14:50:19;;;;;;;23.85;4.85;;;15.30;99.90;;;;;;6219532;22;20019;-79
2023/03/13 14:52:52;;;;;;;19.77;4.40;;;15.30;99.90;;;;;;6219688;23;20449;-80
2023/03/13 14:55:23;;;;;;;22.98;5.75;;;15.20;99.90;;;;;;6246080;23;20008;-79
2023/03/13 14:57:57;;;;;;;21.50;4.30;;;14.90;99.90;;;;;;6193977;23;20015;-78
2023/03/13 15:00:42;;;;;;;24.77;4.65;;;14.90;99.90;;;;;;6219085;22;20012;-78
2023/03/13 15:03:17;;;;;;;19.45;4.75;;;14.80;99.90;;;;;;6246508;23;20461;-79
2023/03/13 15:05:44;;;;;;;;;;;14.70;99.90;;;;;;6219320;23;20453;-80
2023/03/13 15:08:14;;;;;;;15.25;2.88;;;14.80;99.90;;;;;;6246771;23;19911;-79
2023/03/13 15:10:41;;;;;;;29.95;4.80;;;15.00;99.90;;;;;;6246413;22;20087;-80
2023/03/13 15:13:18;;;;;;;22.08;4.53;;;15.10;99.90;;;;;;6246265;23;20038;-80
2023/03/13 15:15:46;;;;;;;21.65;3.63;;;15.10;99.90;;;;;;6246056;23;20012;-79
2023/03/13 15:18:20;;;;;;;16.00;3.47;;;15.10;99.90;;;;;;6246314;23;20019;-78
2023/03/13 15:20:55;;;;;;;17.23;3.03;;;15.00;99.90;;;;;;6246101;22;20008;-76
2023/03/13 15:23:21;;;;;;;16.85;3.17;;;14.90;99.90;;;;;;6246587;23;20012;-79
2023/03/13 15:26:00;;;;;;;18.35;4.05;;;14.80;99.90;;;;;;6246497;23;20012;-80
2023/03/13 15:28:29;;;;;;;15.65;3.17;;;14.70;99.90;;;;;;6144352;23;20064;-80
2023/03/13 15:30:54;;;;;;;21.05;3.20;;;14.60;99.90;;;;;;6245849;22;20467;-80
2023/03/13 15:33:24;;;;;;;17.58;3.33;;;14.60;99.90;;;;;;6245694;23;20088;-80
2023/03/13 15:35:50;;;;;;;21.17;4.32;;;14.60;99.90;;;;;;6246363;23;20016;-80
2023/03/13 15:38:24;;;;;;;16.90;3.53;;;14.70;99.90;;;;;;6245910;23;20070;-79
2023/03/13 15:40:50;;;;;;;21.98;3.40;;;14.70;99.90;;;;;;6246010;22;20062;-80
2023/03/13 15:43:17;;;;;;;25.75;4.82;;;14.70;99.90;;;;;;6245807;23;20433;-79
2023/03/13 15:45:46;;;;;;;20.85;3.83;;;14.80;99.90;;;;;;6221290;23;20310;-79
2023/03/13 15:48:24;;;;;;;20.83;3.95;;;14.80;99.90;;;;;;6224513;23;20027;-79
2023/03/13 15:50:52;;;;;;;23.88;3.95;;;14.90;99.90;;;;;;6251100;22;20425;-80
2023/03/13 15:53:23;;;;;;;17.90;3.45;;;14.90;99.90;;;;;;6262677;23;20012;-77
2023/03/13 15:55:52;;;;;;;26.70;4.35;;;14.90;99.90;;;;;;6266466;23;20019;-80
2023/03/13 15:58:18;;;;;;;22.17;3.45;;;14.80;99.90;;;;;;6254844;23;20068;-78
2023/03/13 16:00:44;;;;;;;19.25;3.92;;;14.90;99.90;;;;;;6221804;23;20012;-79
2023/03/13 16:03:24;;;;;;;33.40;4.80;;;15.00;99.90;;;;;;6248244;23;20011;-79
2023/03/13 16:05:51;;;;;;;17.63;3.30;;;14.80;99.90;;;;;;6247484;23;20079;-81
2023/03/13 16:08:20;;;;;;;18.13;3.28;;;14.70;99.90;;;;;;6247200;23;20065;-80
2023/03/13 16:10:46;;;;;;;29.73;6.00;;;14.60;99.90;;;;;;6220189;23;20079;-80
2023/03/13 16:13:11;;;;;;;26.45;4.82;;;14.50;99.90;;;;;;6247093;23;20066;-81
2023/03/13 16:15:38;;;;;;;19.90;3.88;;;14.40;99.90;;;;;;6219304;23;20020;-79
2023/03/13 16:18:04;;;;;;;22.58;5.28;;;14.20;99.90;;;;;;6219409;23;20016;-80
2023/03/13 16:20:33;;;;;;;29.17;4.72;;;14.20;99.90;;;;;;6219748;22;20083;-80
2023/03/13 16:23:02;;;;;;;26.02;3.92;;;14.00;99.90;;;;;;6195555;23;20012;-79
2023/03/13 16:25:30;;;;;;;22.70;4.03;;;14.00;99.90;;;;;;6247777;23;20053;-81
2023/03/13 16:27:57;;;;;;;22.13;4.65;;;13.90;99.90;;;;;;6220818;23;20043;-78
2023/03/13 16:30:25;;;;;;;24.08;4.70;;;13.90;99.90;;;;;;6220523;22;20469;-79
2023/03/13 16:32:51;;;;;;;25.73;4.50;;;13.80;99.90;;;;;;6220585;23;20018;-80
2023/03/13 16:35:17;;;;;;;27.10;4.57;;;13.80;99.90;;;;;;6195407;23;20016;-79
2023/03/13 16:37:42;;;;;;;27.30;3.90;;;13.60;99.90;;;;;;6220629;23;20019;-81
2023/03/13 16:40:20;;;;;;;26.63;6.05;;;13.60;99.90;;;;;;6220251;23;20027;-80
2023/03/13 16:42:46;;;;;;;18.63;4.00;;;13.50;99.90;;;;;;6247918;23;20039;-79
2023/03/13 16:45:13;;;;;;;19.77;3.97;;;13.50;99.90;;;;;;6247973;23;20008;-80
2023/03/13 16:47:40;;;;;;;24.67;4.32;;;13.40;99.90;;;;;;6195294;23;20012;-79
2023/03/13 16:50:33;;;;;;;28.88;4.32;;;13.30;99.90;;;;;;6247467;23;20012;-80
2023/03/13 16:52:59;;;;;;;27.35;4.72;;;13.20;99.90;;;;;;6208753;23;20020;-79
2023/03/13 16:55:27;;;;;;;25.20;4.60;;;13.00;99.90;;;;;;6247622;23;20442;-81
2023/03/13 16:57:59;;;;;;;21.42;4.43;;;12.90;99.90;;;;;;6220844;23;20070;-81
2023/03/13 17:00:28;;;;;;;21.70;3.72;;;12.80;99.90;;;;;;6247282;22;20012;-79